sensor_id;sensor_type;location;lat;lon;timestamp;pressure;altitude;pressure_sealevel;temperature;humidity
6506;BME280;3286;49.858;8.768;2023-03-31T00:00:21;98455.34;;;14.39;50.64
6506;BME280;3286;49.858;8.768;2023-03-31T00:02:49;98439.28;;;14.54;50.26
6506;BME280;3286;49.858;8.768;2023-03-31T00:05:19;98438.75;;;14.37;51.02
6506;BME280;3286;49.858;8.768;2023-03-31T00:07:52;98429.84;;;13.94;52.23
6506;BME280;3286;49.858;8.768;2023-03-31T00:10:20;98423.59;;;14.30;50.98
6506;BME280;3286;49.858;8.768;2023-03-31T00:12:47;98417.06;;;14.33;51.46
6506;BME280;3286;49.858;8.768;2023-03-31T00:15:13;98405.25;;;14.36;51.55
6506;BME280;3286;49.858;8.768;2023-03-31T00:17:40;98397.91;;;14.73;50.38
6506;BME280;3286;49.858;8.768;2023-03-31T00:20:09;98394.69;;;14.84;50.40
6506;BME280;3286;49.858;8.768;2023-03-31T00:22:37;98396.88;;;14.39;51.33
6506;BME280;3286;49.858;8.768;2023-03-31T00:25:07;98386.03;;;14.33;51.53
6506;BME280;3286;49.858;8.768;2023-03-31T00:27:34;98392.19;;;13.62;53.04
6506;BME280;3286;49.858;8.768;2023-03-31T00:30:01;98384.00;;;14.36;51.18
6506;BME280;3286;49.858;8.768;2023-03-31T00:32:28;98376.66;;;14.73;50.08
6506;BME280;3286;49.858;8.768;2023-03-31T00:34:54;98377.50;;;14.87;49.55
6506;BME280;3286;49.858;8.768;2023-03-31T00:37:23;98373.31;;;14.64;49.78
6506;BME280;3286;49.858;8.768;2023-03-31T00:39:50;98374.00;;;14.73;49.26
6506;BME280;3286;49.858;8.768;2023-03-31T00:42:16;98369.59;;;14.23;50.58
6506;BME280;3286;49.858;8.768;2023-03-31T00:45:20;98360.31;;;14.41;50.22
6506;BME280;3286;49.858;8.768;2023-03-31T00:47:51;98354.25;;;14.60;50.15
6506;BME280;3286;49.858;8.768;2023-03-31T00:50:21;98352.97;;;14.85;49.08
6506;BME280;3286;49.858;8.768;2023-03-31T00:52:54;98349.25;;;14.37;50.93
6506;BME280;3286;49.858;8.768;2023-03-31T00:55:25;98347.38;;;14.31;50.61
6506;BME280;3286;49.858;8.768;2023-03-31T00:57:53;98341.19;;;14.59;49.32
6506;BME280;3286;49.858;8.768;2023-03-31T01:00:22;98335.81;;;14.52;49.65
6506;BME280;3286;49.858;8.768;2023-03-31T01:02:52;98328.41;;;14.76;49.00
6506;BME280;3286;49.858;8.768;2023-03-31T01:05:22;98334.50;;;14.70;49.68
6506;BME280;3286;49.858;8.768;2023-03-31T01:07:52;98325.69;;;14.69;48.97
6506;BME280;3286;49.858;8.768;2023-03-31T01:10:19;98324.22;;;14.67;49.21
6506;BME280;3286;49.858;8.768;2023-03-31T01:12:49;98314.88;;;14.71;49.11
6506;BME280;3286;49.858;8.768;2023-03-31T01:15:17;98325.22;;;14.17;50.00
6506;BME280;3286;49.858;8.768;2023-03-31T01:17:44;98313.22;;;14.28;49.37
6506;BME280;3286;49.858;8.768;2023-03-31T01:20:19;98317.03;;;13.55;51.95
6506;BME280;3286;49.858;8.768;2023-03-31T01:23:06;98302.16;;;13.39;51.88
6506;BME280;3286;49.858;8.768;2023-03-31T01:26:15;98303.94;;;13.10;52.58
6506;BME280;3286;49.858;8.768;2023-03-31T01:28:53;98297.91;;;13.95;50.62
6506;BME280;3286;49.858;8.768;2023-03-31T01:32:10;98293.78;;;14.20;50.42
6506;BME280;3286;49.858;8.768;2023-03-31T01:35:09;98274.22;;;14.77;48.78
6506;BME280;3286;49.858;8.768;2023-03-31T01:38:16;98261.38;;;15.07;47.41
6506;BME280;3286;49.858;8.768;2023-03-31T01:41:06;98277.00;;;14.13;49.47
6506;BME280;3286;49.858;8.768;2023-03-31T01:43:41;98257.97;;;14.58;48.59
6506;BME280;3286;49.858;8.768;2023-03-31T01:46:17;98259.44;;;14.19;49.85
6506;BME280;3286;49.858;8.768;2023-03-31T01:48:52;98258.09;;;14.43;48.84
6506;BME280;3286;49.858;8.768;2023-03-31T01:51:25;98255.28;;;13.68;51.26
6506;BME280;3286;49.858;8.768;2023-03-31T01:54:03;98256.25;;;13.95;49.98
6506;BME280;3286;49.858;8.768;2023-03-31T01:56:35;98251.44;;;14.12;49.93
6506;BME280;3286;49.858;8.768;2023-03-31T01:59:07;98258.72;;;13.40;50.73
6506;BME280;3286;49.858;8.768;2023-03-31T02:01:40;98248.81;;;14.19;49.68
6506;BME280;3286;49.858;8.768;2023-03-31T02:04:12;98237.94;;;14.62;48.57
6506;BME280;3286;49.858;8.768;2023-03-31T02:06:44;98240.59;;;14.56;48.52
6506;BME280;3286;49.858;8.768;2023-03-31T02:09:16;98242.09;;;14.23;49.39
6506;BME280;3286;49.858;8.768;2023-03-31T02:11:47;98233.00;;;14.46;48.91
6506;BME280;3286;49.858;8.768;2023-03-31T02:14:17;98238.88;;;13.93;49.54
6506;BME280;3286;49.858;8.768;2023-03-31T02:16:49;98225.66;;;13.64;50.30
6506;BME280;3286;49.858;8.768;2023-03-31T02:19:19;98224.22;;;14.03;49.62
6506;BME280;3286;49.858;8.768;2023-03-31T02:21:47;98213.00;;;14.63;47.95
6506;BME280;3286;49.858;8.768;2023-03-31T02:24:16;98205.72;;;14.24;49.59
6506;BME280;3286;49.858;8.768;2023-03-31T02:26:48;98216.19;;;13.55;51.05
6506;BME280;3286;49.858;8.768;2023-03-31T02:29:17;98207.63;;;13.95;49.98
6506;BME280;3286;49.858;8.768;2023-03-31T02:31:46;98203.72;;;14.32;49.32
6506;BME280;3286;49.858;8.768;2023-03-31T02:34:14;98194.09;;;14.25;48.90
6506;BME280;3286;49.858;8.768;2023-03-31T02:36:42;98199.09;;;13.99;50.59
6506;BME280;3286;49.858;8.768;2023-03-31T02:39:12;98189.63;;;14.45;50.11
6506;BME280;3286;49.858;8.768;2023-03-31T02:41:40;98183.25;;;14.26;51.20
6506;BME280;3286;49.858;8.768;2023-03-31T02:44:09;98176.00;;;14.62;50.32
6506;BME280;3286;49.858;8.768;2023-03-31T02:46:36;98167.56;;;14.45;50.38
6506;BME280;3286;49.858;8.768;2023-03-31T02:49:06;98169.84;;;14.61;50.42
6506;BME280;3286;49.858;8.768;2023-03-31T02:52:12;98173.38;;;13.36;53.85
6506;BME280;3286;49.858;8.768;2023-03-31T02:54:59;98174.38;;;13.35;53.78
6506;BME280;3286;49.858;8.768;2023-03-31T02:57:43;98186.81;;;11.89;58.32
6506;BME280;3286;49.858;8.768;2023-03-31T03:00:25;98179.88;;;12.61;56.58
6506;BME280;3286;49.858;8.768;2023-03-31T03:03:08;98175.53;;;12.97;56.29
6506;BME280;3286;49.858;8.768;2023-03-31T03:05:42;98166.00;;;13.03;56.36
6506;BME280;3286;49.858;8.768;2023-03-31T03:08:19;98157.00;;;13.26;55.73
6506;BME280;3286;49.858;8.768;2023-03-31T03:10:59;98152.88;;;13.45;55.81
6506;BME280;3286;49.858;8.768;2023-03-31T03:13:32;98134.28;;;13.80;54.38
6506;BME280;3286;49.858;8.768;2023-03-31T03:16:07;98122.59;;;13.39;56.16
6506;BME280;3286;49.858;8.768;2023-03-31T03:18:38;98106.56;;;13.54;55.43
6506;BME280;3286;49.858;8.768;2023-03-31T03:21:05;98097.91;;;13.74;55.24
6506;BME280;3286;49.858;8.768;2023-03-31T03:23:31;98086.69;;;13.79;55.16
6506;BME280;3286;49.858;8.768;2023-03-31T03:25:58;98081.66;;;13.49;56.31
6506;BME280;3286;49.858;8.768;2023-03-31T03:28:24;98073.63;;;13.84;54.99
6506;BME280;3286;49.858;8.768;2023-03-31T03:30:52;98065.91;;;13.96;54.52
6506;BME280;3286;49.858;8.768;2023-03-31T03:33:20;98060.84;;;14.08;54.64
6506;BME280;3286;49.858;8.768;2023-03-31T03:35:49;98057.28;;;13.80;55.35
6506;BME280;3286;49.858;8.768;2023-03-31T03:38:15;98062.41;;;13.88;54.68
6506;BME280;3286;49.858;8.768;2023-03-31T03:40:42;98051.59;;;13.83;54.56
6506;BME280;3286;49.858;8.768;2023-03-31T03:43:08;98036.28;;;13.99;54.27
6506;BME280;3286;49.858;8.768;2023-03-31T03:45:35;98039.91;;;13.77;54.67
6506;BME280;3286;49.858;8.768;2023-03-31T03:48:02;98027.44;;;13.71;54.94
6506;BME280;3286;49.858;8.768;2023-03-31T03:50:30;98036.50;;;13.90;54.26
6506;BME280;3286;49.858;8.768;2023-03-31T03:52:56;98032.41;;;13.88;54.45
6506;BME280;3286;49.858;8.768;2023-03-31T03:55:23;98021.44;;;14.11;53.77
6506;BME280;3286;49.858;8.768;2023-03-31T03:57:50;98024.66;;;13.93;54.05
6506;BME280;3286;49.858;8.768;2023-03-31T04:00:17;98024.06;;;13.42;55.61
6506;BME280;3286;49.858;8.768;2023-03-31T04:02:43;98008.47;;;13.68;55.30
6506;BME280;3286;49.858;8.768;2023-03-31T04:05:10;97994.97;;;13.56;55.51
6506;BME280;3286;49.858;8.768;2023-03-31T04:07:38;97982.13;;;12.47;58.38
6506;BME280;3286;49.858;8.768;2023-03-31T04:10:06;97989.59;;;13.42;56.47
6506;BME280;3286;49.858;8.768;2023-03-31T04:12:33;97985.34;;;13.13;57.01
6506;BME280;3286;49.858;8.768;2023-03-31T04:15:00;97977.81;;;13.52;55.80
6506;BME280;3286;49.858;8.768;2023-03-31T04:17:26;97961.88;;;13.52;55.80
6506;BME280;3286;49.858;8.768;2023-03-31T04:19:58;97956.00;;;13.14;57.31
6506;BME280;3286;49.858;8.768;2023-03-31T04:22:28;97974.53;;;13.50;55.94
6506;BME280;3286;49.858;8.768;2023-03-31T04:25:01;97955.94;;;13.43;55.96
6506;BME280;3286;49.858;8.768;2023-03-31T04:27:28;97968.19;;;13.44;55.89
6506;BME280;3286;49.858;8.768;2023-03-31T04:29:55;97980.47;;;13.58;55.10
6506;BME280;3286;49.858;8.768;2023-03-31T04:32:22;97970.03;;;13.50;55.41
6506;BME280;3286;49.858;8.768;2023-03-31T04:34:49;97951.19;;;13.38;55.58
6506;BME280;3286;49.858;8.768;2023-03-31T04:37:16;97937.41;;;13.63;55.13
6506;BME280;3286;49.858;8.768;2023-03-31T04:39:42;97936.72;;;13.41;55.64
6506;BME280;3286;49.858;8.768;2023-03-31T04:42:12;97929.03;;;13.66;55.05
6506;BME280;3286;49.858;8.768;2023-03-31T04:44:39;97924.91;;;13.43;55.71
6506;BME280;3286;49.858;8.768;2023-03-31T04:47:05;97910.63;;;13.44;55.56
6506;BME280;3286;49.858;8.768;2023-03-31T04:49:32;97899.84;;;13.59;54.68
6506;BME280;3286;49.858;8.768;2023-03-31T04:52:00;97903.88;;;13.42;54.84
6506;BME280;3286;49.858;8.768;2023-03-31T04:54:27;97894.31;;;13.54;54.88
6506;BME280;3286;49.858;8.768;2023-03-31T04:56:53;97890.59;;;13.35;55.24
6506;BME280;3286;49.858;8.768;2023-03-31T04:59:21;97891.28;;;13.64;54.43
6506;BME280;3286;49.858;8.768;2023-03-31T05:01:48;97897.00;;;13.81;53.50
6506;BME280;3286;49.858;8.768;2023-03-31T05:04:14;97899.03;;;13.59;54.30
6506;BME280;3286;49.858;8.768;2023-03-31T05:06:41;97904.13;;;13.54;54.58
6506;BME280;3286;49.858;8.768;2023-03-31T05:09:08;97901.47;;;13.60;54.83
6506;BME280;3286;49.858;8.768;2023-03-31T05:11:34;97920.88;;;13.74;54.88
6506;BME280;3286;49.858;8.768;2023-03-31T05:14:02;97924.84;;;13.30;56.36
6506;BME280;3286;49.858;8.768;2023-03-31T05:16:30;97917.03;;;13.08;56.39
6506;BME280;3286;49.858;8.768;2023-03-31T05:18:57;97911.03;;;12.93;56.68
6506;BME280;3286;49.858;8.768;2023-03-31T05:21:23;97916.41;;;12.64;57.66
6506;BME280;3286;49.858;8.768;2023-03-31T05:23:51;97911.34;;;13.11;56.73
6506;BME280;3286;49.858;8.768;2023-03-31T05:26:18;97910.56;;;12.75;57.70
6506;BME280;3286;49.858;8.768;2023-03-31T05:28:46;97912.47;;;13.44;56.05
6506;BME280;3286;49.858;8.768;2023-03-31T05:31:13;97898.72;;;12.71;58.43
6506;BME280;3286;49.858;8.768;2023-03-31T05:33:41;97891.91;;;13.04;57.44
6506;BME280;3286;49.858;8.768;2023-03-31T05:36:08;97895.91;;;12.80;58.04
6506;BME280;3286;49.858;8.768;2023-03-31T05:38:35;97884.75;;;12.91;58.13
6506;BME280;3286;49.858;8.768;2023-03-31T05:41:02;97879.00;;;13.43;56.70
6506;BME280;3286;49.858;8.768;2023-03-31T05:43:29;97878.81;;;13.51;56.72
6506;BME280;3286;49.858;8.768;2023-03-31T05:45:56;97890.78;;;13.27;57.25
6506;BME280;3286;49.858;8.768;2023-03-31T05:48:22;97878.81;;;12.47;60.00
6506;BME280;3286;49.858;8.768;2023-03-31T05:50:50;97872.06;;;12.86;58.69
6506;BME280;3286;49.858;8.768;2023-03-31T05:53:17;97854.34;;;12.87;58.55
6506;BME280;3286;49.858;8.768;2023-03-31T05:55:44;97840.78;;;13.10;57.85
6506;BME280;3286;49.858;8.768;2023-03-31T05:58:10;97842.47;;;11.49;62.47
6506;BME280;3286;49.858;8.768;2023-03-31T06:00:37;97822.53;;;12.03;61.65
6506;BME280;3286;49.858;8.768;2023-03-31T06:03:03;97808.22;;;11.97;61.65
6506;BME280;3286;49.858;8.768;2023-03-31T06:05:32;97813.31;;;11.99;61.97
6506;BME280;3286;49.858;8.768;2023-03-31T06:08:00;97811.81;;;12.46;60.16
6506;BME280;3286;49.858;8.768;2023-03-31T06:10:27;97805.28;;;12.49;59.98
6506;BME280;3286;49.858;8.768;2023-03-31T06:12:54;97804.00;;;12.03;61.91
6506;BME280;3286;49.858;8.768;2023-03-31T06:15:21;97797.38;;;12.56;59.91
6506;BME280;3286;49.858;8.768;2023-03-31T06:17:47;97788.03;;;12.67;59.52
6506;BME280;3286;49.858;8.768;2023-03-31T06:20:14;97787.47;;;12.78;59.12
6506;BME280;3286;49.858;8.768;2023-03-31T06:22:41;97788.72;;;12.40;60.59
6506;BME280;3286;49.858;8.768;2023-03-31T06:25:09;97783.47;;;12.47;61.01
6506;BME280;3286;49.858;8.768;2023-03-31T06:27:35;97755.03;;;12.69;60.06
6506;BME280;3286;49.858;8.768;2023-03-31T06:30:02;97748.69;;;12.08;61.84
6506;BME280;3286;49.858;8.768;2023-03-31T06:32:30;97738.03;;;12.50;60.60
6506;BME280;3286;49.858;8.768;2023-03-31T06:34:56;97719.47;;;12.37;61.17
6506;BME280;3286;49.858;8.768;2023-03-31T06:37:23;97713.19;;;11.67;63.16
6506;BME280;3286;49.858;8.768;2023-03-31T06:39:49;97710.47;;;12.24;61.69
6506;BME280;3286;49.858;8.768;2023-03-31T06:42:17;97703.78;;;12.00;62.51
6506;BME280;3286;49.858;8.768;2023-03-31T06:44:44;97694.50;;;12.66;60.68
6506;BME280;3286;49.858;8.768;2023-03-31T06:47:10;97685.31;;;12.62;60.59
6506;BME280;3286;49.858;8.768;2023-03-31T06:49:37;97692.69;;;12.80;59.96
6506;BME280;3286;49.858;8.768;2023-03-31T06:52:04;97678.22;;;13.30;59.24
6506;BME280;3286;49.858;8.768;2023-03-31T06:54:31;97670.69;;;12.93;59.94
6506;BME280;3286;49.858;8.768;2023-03-31T06:56:58;97678.63;;;13.00;60.03
6506;BME280;3286;49.858;8.768;2023-03-31T06:59:25;97675.75;;;13.42;58.82
6506;BME280;3286;49.858;8.768;2023-03-31T07:01:52;97678.63;;;13.47;57.96
6506;BME280;3286;49.858;8.768;2023-03-31T07:04:19;97678.41;;;13.42;58.42
6506;BME280;3286;49.858;8.768;2023-03-31T07:06:45;97670.06;;;13.04;59.12
6506;BME280;3286;49.858;8.768;2023-03-31T07:09:12;97673.31;;;12.73;60.23
6506;BME280;3286;49.858;8.768;2023-03-31T07:11:38;97659.97;;;12.39;60.56
6506;BME280;3286;49.858;8.768;2023-03-31T07:14:05;97674.31;;;12.79;60.32
6506;BME280;3286;49.858;8.768;2023-03-31T07:16:33;97649.41;;;12.32;61.22
6506;BME280;3286;49.858;8.768;2023-03-31T07:19:00;97659.63;;;11.58;63.71
6506;BME280;3286;49.858;8.768;2023-03-31T07:21:28;97662.81;;;12.31;61.60
6506;BME280;3286;49.858;8.768;2023-03-31T07:23:55;97655.25;;;12.14;61.94
6506;BME280;3286;49.858;8.768;2023-03-31T07:26:22;97641.38;;;12.06;62.63
6506;BME280;3286;49.858;8.768;2023-03-31T07:28:49;97656.91;;;12.29;62.15
6506;BME280;3286;49.858;8.768;2023-03-31T07:31:16;97651.97;;;12.12;63.11
6506;BME280;3286;49.858;8.768;2023-03-31T07:33:44;97657.28;;;12.19;62.91
6506;BME280;3286;49.858;8.768;2023-03-31T07:36:10;97660.38;;;11.87;64.55
6506;BME280;3286;49.858;8.768;2023-03-31T07:38:37;97644.88;;;12.20;63.72
6506;BME280;3286;49.858;8.768;2023-03-31T07:41:05;97660.16;;;11.82;64.83
6506;BME280;3286;49.858;8.768;2023-03-31T07:43:35;97658.94;;;11.43;66.61
6506;BME280;3286;49.858;8.768;2023-03-31T07:46:01;97657.53;;;11.82;65.33
6506;BME280;3286;49.858;8.768;2023-03-31T07:48:29;97663.66;;;11.54;66.06
6506;BME280;3286;49.858;8.768;2023-03-31T07:50:57;97673.84;;;11.51;66.10
6506;BME280;3286;49.858;8.768;2023-03-31T07:53:24;97661.50;;;11.29;66.00
6506;BME280;3286;49.858;8.768;2023-03-31T07:55:50;97689.28;;;10.97;66.04
6506;BME280;3286;49.858;8.768;2023-03-31T07:58:17;97673.69;;;11.02;65.83
6506;BME280;3286;49.858;8.768;2023-03-31T08:00:43;97674.44;;;11.18;64.35
6506;BME280;3286;49.858;8.768;2023-03-31T08:03:10;97678.16;;;11.30;63.98
6506;BME280;3286;49.858;8.768;2023-03-31T08:05:37;97685.22;;;11.23;63.32
6506;BME280;3286;49.858;8.768;2023-03-31T08:08:05;97667.25;;;11.11;62.82
6506;BME280;3286;49.858;8.768;2023-03-31T08:10:31;97672.41;;;11.20;62.52
6506;BME280;3286;49.858;8.768;2023-03-31T08:12:58;97672.09;;;11.36;61.93
6506;BME280;3286;49.858;8.768;2023-03-31T08:15:25;97684.53;;;11.14;62.38
6506;BME280;3286;49.858;8.768;2023-03-31T08:17:52;97674.53;;;11.66;60.66
6506;BME280;3286;49.858;8.768;2023-03-31T08:20:18;97669.34;;;11.51;60.58
6506;BME280;3286;49.858;8.768;2023-03-31T08:22:45;97677.00;;;11.68;60.38
6506;BME280;3286;49.858;8.768;2023-03-31T08:25:13;97664.91;;;12.49;58.51
6506;BME280;3286;49.858;8.768;2023-03-31T08:27:40;97663.63;;;12.25;59.00
6506;BME280;3286;49.858;8.768;2023-03-31T08:30:09;97666.56;;;12.57;59.16
6506;BME280;3286;49.858;8.768;2023-03-31T08:32:36;97664.06;;;12.28;59.98
6506;BME280;3286;49.858;8.768;2023-03-31T08:35:04;97671.31;;;11.71;61.13
6506;BME280;3286;49.858;8.768;2023-03-31T08:37:30;97690.59;;;12.55;59.01
6506;BME280;3286;49.858;8.768;2023-03-31T08:39:57;97696.53;;;11.67;60.92
6506;BME280;3286;49.858;8.768;2023-03-31T08:42:33;97704.97;;;11.84;61.20
6506;BME280;3286;49.858;8.768;2023-03-31T08:45:02;97713.13;;;11.25;63.28
6506;BME280;3286;49.858;8.768;2023-03-31T08:47:33;97708.84;;;11.53;63.12
6506;BME280;3286;49.858;8.768;2023-03-31T08:50:04;97702.19;;;11.07;64.82
6506;BME280;3286;49.858;8.768;2023-03-31T08:52:34;97697.59;;;11.44;63.46
6506;BME280;3286;49.858;8.768;2023-03-31T08:55:06;97670.47;;;11.70;62.37
6506;BME280;3286;49.858;8.768;2023-03-31T08:57:39;97673.63;;;12.36;60.78
6506;BME280;3286;49.858;8.768;2023-03-31T09:00:14;97675.66;;;12.27;61.62
6506;BME280;3286;49.858;8.768;2023-03-31T09:02:47;97679.81;;;12.01;62.19
6506;BME280;3286;49.858;8.768;2023-03-31T09:05:36;97671.03;;;11.94;62.43
6506;BME280;3286;49.858;8.768;2023-03-31T09:08:12;97668.13;;;12.31;61.62
6506;BME280;3286;49.858;8.768;2023-03-31T09:10:46;97667.78;;;12.74;60.21
6506;BME280;3286;49.858;8.768;2023-03-31T09:13:28;97658.63;;;13.38;59.91
6506;BME280;3286;49.858;8.768;2023-03-31T09:16:01;97650.88;;;13.16;60.80
6506;BME280;3286;49.858;8.768;2023-03-31T09:18:31;97632.53;;;13.01;61.39
6506;BME280;3286;49.858;8.768;2023-03-31T09:21:04;97647.97;;;12.43;63.19
6506;BME280;3286;49.858;8.768;2023-03-31T09:23:35;97639.91;;;12.03;64.27
6506;BME280;3286;49.858;8.768;2023-03-31T09:26:04;97639.56;;;11.71;63.95
6506;BME280;3286;49.858;8.768;2023-03-31T09:28:36;97649.13;;;11.72;63.86
6506;BME280;3286;49.858;8.768;2023-03-31T09:31:10;97656.16;;;12.49;61.43
6506;BME280;3286;49.858;8.768;2023-03-31T09:33:43;97665.28;;;12.39;61.08
6506;BME280;3286;49.858;8.768;2023-03-31T09:36:14;97658.00;;;12.68;60.50
6506;BME280;3286;49.858;8.768;2023-03-31T09:38:43;97656.56;;;12.45;62.17
6506;BME280;3286;49.858;8.768;2023-03-31T09:41:11;97656.59;;;12.66;61.52
6506;BME280;3286;49.858;8.768;2023-03-31T09:43:43;97662.25;;;12.49;61.80
6506;BME280;3286;49.858;8.768;2023-03-31T09:46:16;97661.28;;;12.90;60.31
6506;BME280;3286;49.858;8.768;2023-03-31T09:48:51;97656.09;;;13.83;58.20
6506;BME280;3286;49.858;8.768;2023-03-31T09:51:23;97661.03;;;13.73;58.67
6506;BME280;3286;49.858;8.768;2023-03-31T09:53:53;97666.19;;;13.27;58.98
6506;BME280;3286;49.858;8.768;2023-03-31T09:56:33;97665.13;;;12.61;61.34
6506;BME280;3286;49.858;8.768;2023-03-31T09:59:02;97673.84;;;11.93;61.92
6506;BME280;3286;49.858;8.768;2023-03-31T10:01:29;97657.59;;;11.54;62.14
6506;BME280;3286;49.858;8.768;2023-03-31T10:03:56;97672.38;;;11.48;61.26
6506;BME280;3286;49.858;8.768;2023-03-31T10:06:23;97668.19;;;11.25;61.77
6506;BME280;3286;49.858;8.768;2023-03-31T10:08:53;97652.63;;;11.44;60.40
6506;BME280;3286;49.858;8.768;2023-03-31T10:11:22;97627.81;;;11.45;58.97
6506;BME280;3286;49.858;8.768;2023-03-31T10:13:51;97631.66;;;11.36;58.78
6506;BME280;3286;49.858;8.768;2023-03-31T10:16:28;97605.78;;;12.22;56.24
6506;BME280;3286;49.858;8.768;2023-03-31T10:19:10;97612.03;;;12.00;57.05
6506;BME280;3286;49.858;8.768;2023-03-31T10:21:37;97599.94;;;12.67;55.49
6506;BME280;3286;49.858;8.768;2023-03-31T10:24:08;97581.16;;;12.41;55.35
6506;BME280;3286;49.858;8.768;2023-03-31T10:26:35;97580.38;;;12.88;53.57
6506;BME280;3286;49.858;8.768;2023-03-31T10:29:09;97580.75;;;12.24;55.20
6506;BME280;3286;49.858;8.768;2023-03-31T10:31:38;97576.88;;;12.34;55.12
6506;BME280;3286;49.858;8.768;2023-03-31T10:34:06;97577.50;;;12.76;53.75
6506;BME280;3286;49.858;8.768;2023-03-31T10:36:36;97572.16;;;13.10;52.13
6506;BME280;3286;49.858;8.768;2023-03-31T10:39:04;97588.31;;;12.81;53.38
6506;BME280;3286;49.858;8.768;2023-03-31T10:41:32;97588.28;;;12.34;54.18
6506;BME280;3286;49.858;8.768;2023-03-31T10:44:01;97591.97;;;11.78;55.98
6506;BME280;3286;49.858;8.768;2023-03-31T10:46:46;97591.25;;;11.49;58.53
6506;BME280;3286;49.858;8.768;2023-03-31T10:49:14;97578.31;;;12.36;56.54
6506;BME280;3286;49.858;8.768;2023-03-31T10:51:48;97582.19;;;12.60;56.18
6506;BME280;3286;49.858;8.768;2023-03-31T10:54:15;97581.44;;;14.05;53.30
6506;BME280;3286;49.858;8.768;2023-03-31T10:56:45;97582.75;;;12.22;56.61
6506;BME280;3286;49.858;8.768;2023-03-31T10:59:23;97573.16;;;13.36;55.18
6506;BME280;3286;49.858;8.768;2023-03-31T11:02:13;97581.75;;;13.11;55.16
6506;BME280;3286;49.858;8.768;2023-03-31T11:04:58;97571.97;;;13.84;54.36
6506;BME280;3286;49.858;8.768;2023-03-31T11:07:39;97568.75;;;12.49;57.19
6506;BME280;3286;49.858;8.768;2023-03-31T11:10:33;97565.06;;;12.77;56.74
6506;BME280;3286;49.858;8.768;2023-03-31T11:13:06;97545.94;;;12.61;57.13
6506;BME280;3286;49.858;8.768;2023-03-31T11:15:41;97544.81;;;13.29;54.72
6506;BME280;3286;49.858;8.768;2023-03-31T11:18:23;97542.66;;;14.36;53.59
6506;BME280;3286;49.858;8.768;2023-03-31T11:20:59;97535.66;;;14.92;52.22
6506;BME280;3286;49.858;8.768;2023-03-31T11:23:39;97534.44;;;15.14;50.76
6506;BME280;3286;49.858;8.768;2023-03-31T11:26:09;97534.50;;;15.63;50.45
6506;BME280;3286;49.858;8.768;2023-03-31T11:28:52;97535.03;;;15.16;51.25
6506;BME280;3286;49.858;8.768;2023-03-31T11:31:32;97542.47;;;15.44;49.88
6506;BME280;3286;49.858;8.768;2023-03-31T11:34:23;97529.94;;;15.52;49.41
6506;BME280;3286;49.858;8.768;2023-03-31T11:37:18;97539.13;;;14.68;50.93
6506;BME280;3286;49.858;8.768;2023-03-31T11:39:55;97547.38;;;15.29;50.10
6506;BME280;3286;49.858;8.768;2023-03-31T11:42:34;97537.09;;;15.14;50.61
6506;BME280;3286;49.858;8.768;2023-03-31T11:45:05;97541.22;;;14.91;51.08
6506;BME280;3286;49.858;8.768;2023-03-31T11:47:39;97538.31;;;14.74;52.28
6506;BME280;3286;49.858;8.768;2023-03-31T11:50:11;97532.38;;;15.34;51.29
6506;BME280;3286;49.858;8.768;2023-03-31T11:52:40;97526.06;;;15.47;51.48
6506;BME280;3286;49.858;8.768;2023-03-31T11:55:14;97525.78;;;15.56;50.22
6506;BME280;3286;49.858;8.768;2023-03-31T11:57:45;97534.00;;;15.85;49.13
6506;BME280;3286;49.858;8.768;2023-03-31T12:00:17;97525.16;;;15.91;50.69
6506;BME280;3286;49.858;8.768;2023-03-31T12:02:48;97533.13;;;14.54;52.65
6506;BME280;3286;49.858;8.768;2023-03-31T12:05:19;97522.34;;;14.74;52.82
6506;BME280;3286;49.858;8.768;2023-03-31T12:07:51;97516.31;;;14.60;53.07
6506;BME280;3286;49.858;8.768;2023-03-31T12:10:21;97510.56;;;15.26;51.33
6506;BME280;3286;49.858;8.768;2023-03-31T12:12:51;97517.00;;;14.99;52.26
6506;BME280;3286;49.858;8.768;2023-03-31T12:15:23;97526.28;;;15.27;51.10
6506;BME280;3286;49.858;8.768;2023-03-31T12:17:56;97522.47;;;15.04;51.27
6506;BME280;3286;49.858;8.768;2023-03-31T12:20:29;97533.78;;;14.49;53.63
6506;BME280;3286;49.858;8.768;2023-03-31T12:22:59;97529.88;;;13.87;56.27
6506;BME280;3286;49.858;8.768;2023-03-31T12:25:40;97520.31;;;14.44;55.20
6506;BME280;3286;49.858;8.768;2023-03-31T12:28:09;97505.94;;;14.26;56.35
6506;BME280;3286;49.858;8.768;2023-03-31T12:30:38;97503.75;;;14.48;54.95
6506;BME280;3286;49.858;8.768;2023-03-31T12:33:14;97494.63;;;14.38;54.30
6506;BME280;3286;49.858;8.768;2023-03-31T12:35:54;97508.50;;;14.14;54.78
6506;BME280;3286;49.858;8.768;2023-03-31T12:38:34;97514.06;;;13.74;56.56
6506;BME280;3286;49.858;8.768;2023-03-31T12:41:08;97511.03;;;14.28;55.59
6506;BME280;3286;49.858;8.768;2023-03-31T12:46:49;97525.78;;;13.39;58.17
6506;BME280;3286;49.858;8.768;2023-03-31T12:49:30;97521.78;;;13.75;57.96
6506;BME280;3286;49.858;8.768;2023-03-31T12:52:04;97515.88;;;13.14;60.02
6506;BME280;3286;49.858;8.768;2023-03-31T12:57:22;97506.13;;;12.95;61.10
6506;BME280;3286;49.858;8.768;2023-03-31T13:00:23;97498.00;;;13.55;59.49
6506;BME280;3286;49.858;8.768;2023-03-31T13:05:55;97499.50;;;13.83;57.11
6506;BME280;3286;49.858;8.768;2023-03-31T13:08:53;97489.41;;;13.67;57.26
6506;BME280;3286;49.858;8.768;2023-03-31T13:11:22;97482.56;;;13.77;57.64
6506;BME280;3286;49.858;8.768;2023-03-31T13:14:01;97471.06;;;14.67;55.64
6506;BME280;3286;49.858;8.768;2023-03-31T13:16:28;97473.50;;;14.68;55.09
6506;BME280;3286;49.858;8.768;2023-03-31T13:18:56;97459.13;;;15.32;54.01
6506;BME280;3286;49.858;8.768;2023-03-31T13:21:23;97457.31;;;14.95;53.91
6506;BME280;3286;49.858;8.768;2023-03-31T13:23:50;97459.59;;;14.73;54.48
6506;BME280;3286;49.858;8.768;2023-03-31T13:26:52;97451.78;;;14.53;53.39
6506;BME280;3286;49.858;8.768;2023-03-31T13:29:23;97442.88;;;14.22;53.12
6506;BME280;3286;49.858;8.768;2023-03-31T13:32:17;97426.34;;;13.94;54.38
6506;BME280;3286;49.858;8.768;2023-03-31T13:34:48;97458.84;;;13.83;54.22
6506;BME280;3286;49.858;8.768;2023-03-31T13:37:28;97534.91;;;12.37;59.67
6506;BME280;3286;49.858;8.768;2023-03-31T13:40:19;97585.06;;;9.91;65.51
6506;BME280;3286;49.858;8.768;2023-03-31T13:43:05;97574.28;;;9.70;65.13
6506;BME280;3286;49.858;8.768;2023-03-31T13:45:55;97549.59;;;10.15;64.76
6506;BME280;3286;49.858;8.768;2023-03-31T13:48:35;97530.38;;;10.65;64.13
6506;BME280;3286;49.858;8.768;2023-03-31T13:51:19;97541.53;;;10.95;62.44
6506;BME280;3286;49.858;8.768;2023-03-31T13:54:21;97523.25;;;10.65;64.51